Time;durP1;ratioP1;P1;durP2;ratioP2;P2;SDS_P1;SDS_P2;PMS_P1;PMS_P2;Temp;Humidity;BMP_temperature;BMP_pressure;BME280_temperature;BME280_humidity;BME280_pressure;Samples;Min_cycle;Max_cycle;Signal;HPM_P1;HPM_P2
2022/06/14 00:01:50;;;;;;;;;10.67;9.67;;;;;17.69;55.45;101763.31;5082223;27;45425;-74
2022/06/14 00:04:15;;;;;;;;;9.00;9.00;;;;;17.66;55.57;101761.84;5086493;27;46262;-75
2022/06/14 00:06:40;;;;;;;;;9.00;9.00;;;;;17.67;55.17;101755.44;5089046;27;45424;-74
2022/06/14 00:09:06;;;;;;;;;9.67;9.67;;;;;17.66;55.47;101765.34;5082310;27;45401;-74
2022/06/14 00:11:34;;;;;;;;;11.67;11.67;;;;;17.63;55.23;101765.75;5098001;27;46025;-74
2022/06/14 00:14:01;;;;;;;;;11.33;11.33;;;;;17.64;55.37;101766.59;5082305;27;45635;-75
2022/06/14 00:16:29;;;;;;;;;12.00;11.00;;;;;17.65;55.92;101758.31;5082073;27;45389;-75
2022/06/14 00:18:55;;;;;;;;;11.00;11.00;;;;;17.63;55.76;101752.31;5082116;27;45484;-74
2022/06/14 00:21:21;;;;;;;;;8.33;8.33;;;;;17.66;56.00;101751.09;5097920;27;45937;-74
2022/06/14 00:23:47;;;;;;;;;11.00;9.00;;;;;17.62;55.68;101747.13;5082061;27;45416;-74
2022/06/14 00:26:12;;;;;;;;;11.67;11.67;;;;;17.67;55.48;101758.97;5082222;27;45334;-74
2022/06/14 00:28:39;;;;;;;;;13.00;12.33;;;;;17.66;55.50;101761.84;5082335;27;45303;-74
2022/06/14 00:31:10;;;;;;;;;12.00;11.67;;;;;17.60;55.61;101747.31;5081877;27;45284;-74
2022/06/14 00:33:36;;;;;;;;;13.33;10.67;;;;;17.60;55.96;101750.00;5081967;27;45461;-75
2022/06/14 00:36:25;;;;;;;;;11.00;10.33;;;;;17.62;56.02;101741.75;5094325;27;45380;-74
2022/06/14 00:38:51;;;;;;;;;9.00;9.00;;;;;17.56;56.22;101742.53;5070522;28;45257;-75
2022/06/14 00:41:38;;;;;;;;;10.00;10.00;;;;;17.58;56.37;101754.78;5081759;27;45206;-75
2022/06/14 00:44:05;;;;;;;;;10.00;10.00;;;;;17.57;55.87;101742.34;5077117;28;48712;-74
2022/06/14 00:46:56;;;;;;;;;13.00;12.00;;;;;17.57;55.79;101749.59;5077187;28;45571;-74
2022/06/14 00:49:28;;;;;;;;;10.00;10.00;;;;;17.56;56.07;101748.75;5082093;27;45365;-74
2022/06/14 00:52:27;;;;;;;;;11.00;11.00;;;;;17.48;55.81;101740.84;5081457;27;45420;-74
2022/06/14 00:55:10;;;;;;;;;10.00;10.00;;;;;17.50;56.04;101753.06;5081146;27;45295;-74
2022/06/14 00:57:41;;;;;;;;;12.00;12.00;;;;;17.48;55.57;101752.41;5081686;27;45143;-74
2022/06/14 01:00:13;;;;;;;;;11.33;11.00;;;;;17.35;56.46;101741.56;5081397;27;45363;-74
2022/06/14 01:02:50;;;;;;;;;10.00;10.00;;;;;17.40;56.32;101753.41;5081639;28;45213;-74
2022/06/14 01:05:22;;;;;;;;;11.00;11.00;;;;;17.35;55.88;101741.56;5092376;27;45677;-74
2022/06/14 01:07:52;;;;;;;;;10.33;10.33;;;;;17.29;56.85;101744.03;5081488;28;45342;-74
2022/06/14 01:10:26;;;;;;;;;10.67;10.00;;;;;17.26;56.00;101749.78;5081416;28;45356;-74
2022/06/14 01:12:56;;;;;;;;;12.00;12.00;;;;;17.28;56.34;101754.97;5081211;27;45315;-75
2022/06/14 01:15:33;;;;;;;;;11.00;11.00;;;;;17.26;56.26;101747.09;5080891;27;45378;-75
2022/06/14 01:18:08;;;;;;;;;10.00;8.33;;;;;17.26;56.64;101748.94;5081267;27;45352;-74
2022/06/14 01:20:35;;;;;;;;;8.33;8.33;;;;;17.23;56.05;101744.81;5081300;27;45486;-74
2022/06/14 01:23:02;;;;;;;;;11.33;11.33;;;;;17.22;56.34;101748.53;5096863;27;46065;-75
2022/06/14 01:25:35;;;;;;;;;9.33;8.67;;;;;17.20;56.56;101750.56;5080931;27;45350;-74
2022/06/14 01:28:03;;;;;;;;;12.67;12.67;;;;;17.11;57.01;101735.59;5081234;27;45476;-75
2022/06/14 01:30:33;;;;;;;;;9.67;9.67;;;;;17.12;56.21;101742.66;5081022;27;45295;-75
2022/06/14 01:33:03;;;;;;;;;10.00;9.00;;;;;17.07;56.73;101737.00;5096822;27;46106;-74
2022/06/14 01:35:35;;;;;;;;;9.67;9.67;;;;;17.02;56.97;101730.34;5080915;27;45396;-74
2022/06/14 01:38:04;;;;;;;;;6.00;6.00;;;;;16.94;57.22;101729.66;5079717;28;45527;-74
2022/06/14 01:40:54;;;;;;;;;10.67;10.00;;;;;16.96;57.44;101731.13;5096804;27;45386;-75
2022/06/14 01:43:39;;;;;;;;;12.67;11.67;;;;;16.94;57.54;101737.72;5080598;27;45400;-74
2022/06/14 01:46:16;;;;;;;;;11.67;9.33;;;;;16.89;56.92;101739.13;5080700;28;45502;-74
2022/06/14 01:48:52;;;;;;;;;11.67;11.00;;;;;16.85;57.12;101732.44;5080709;27;45359;-75
2022/06/14 01:54:34;;;;;;;;;12.00;11.33;;;;;16.78;57.08;101729.72;5080705;28;45228;-74
2022/06/14 01:57:20;;;;;;;;;10.67;10.67;;;;;16.72;57.71;101722.44;5080469;27;45474;-74
2022/06/14 02:00:15;;;;;;;;;10.00;9.67;;;;;16.73;57.56;101721.41;5079158;27;46057;-74
2022/06/14 02:04:37;;;;;;;;;10.00;10.00;;;;;16.66;57.66;101729.41;5080096;28;45313;-74
2022/06/14 02:06:20;;;;;;;;;10.00;9.33;;;;;16.62;57.74;101727.28;5091016;27;45524;-74
2022/06/14 02:08:55;;;;;;;;;11.33;10.67;;;;;16.56;57.97;101719.97;5071572;27;46440;-74
2022/06/14 02:11:34;;;;;;;;;11.00;11.00;;;;;16.55;58.32;101718.34;5080470;27;45416;-74
2022/06/14 02:14:24;;;;;;;;;9.67;9.67;;;;;16.51;57.89;101709.81;5080403;27;45341;-74
2022/06/14 02:17:00;;;;;;;;;9.33;9.33;;;;;16.45;58.14;101714.09;5079851;28;45351;-74
2022/06/14 02:19:35;;;;;;;;;10.67;10.00;;;;;16.41;58.22;101718.19;5096145;27;47283;-74
2022/06/14 02:22:13;;;;;;;;;10.00;10.00;;;;;16.34;58.39;101706.56;5080153;27;45412;-74
2022/06/14 02:25:08;;;;;;;;;10.00;10.00;;;;;16.34;58.21;101709.25;5080527;27;45313;-74
2022/06/14 02:27:42;;;;;;;;;9.00;9.00;;;;;16.35;58.30;101710.91;5079907;27;45342;-74
2022/06/14 02:30:13;;;;;;;;;10.00;10.00;;;;;16.32;58.54;101698.69;5079919;27;45981;-75
2022/06/14 02:32:44;;;;;;;;;9.00;9.00;;;;;16.26;59.05;101692.22;5075303;28;45269;-74
2022/06/14 02:35:21;;;;;;;;;10.33;10.33;;;;;16.19;58.83;101685.13;5070231;28;45287;-75
2022/06/14 02:37:59;;;;;;;;;10.00;10.00;;;;;16.25;58.47;101700.47;5080035;27;45362;-74
2022/06/14 02:40:29;;;;;;;;;8.00;8.00;;;;;16.13;58.00;101689.38;5080176;27;45446;-74
2022/06/14 02:43:09;;;;;;;;;9.00;8.33;;;;;16.10;58.72;101676.38;5079869;27;45330;-74
2022/06/14 02:45:42;;;;;;;;;7.67;7.67;;;;;16.11;59.35;101684.22;5080051;27;45677;-74
2022/06/14 02:48:12;;;;;;;;;9.00;9.00;;;;;16.00;59.44;101674.81;5079614;28;45458;-75
2022/06/14 02:51:11;;;;;;;;;8.00;8.00;;;;;16.01;59.61;101681.84;5079892;27;45480;-75
2022/06/14 02:53:44;;;;;;;;;9.67;9.67;;;;;15.93;59.36;101663.16;5092144;27;45669;-74
2022/06/14 02:56:16;;;;;;;;;9.00;9.00;;;;;15.94;59.46;101670.16;5079994;27;45361;-74
2022/06/14 02:58:50;;;;;;;;;8.00;8.00;;;;;16.00;59.48;101673.97;5079613;28;45388;-74
2022/06/14 03:01:31;;;;;;;;;9.33;9.33;;;;;15.98;59.64;101668.00;5079658;27;46181;-75
2022/06/14 03:04:12;;;;;;;;;9.00;9.00;;;;;15.84;59.46;101662.44;5081102;27;45157;-75
2022/06/14 03:06:41;;;;;;;;;8.67;8.67;;;;;15.88;59.44;101665.56;5086558;27;45453;-74
2022/06/14 03:09:15;;;;;;;;;11.00;10.67;;;;;15.94;60.20;101669.31;5079271;28;45362;-75
2022/06/14 03:11:56;;;;;;;;;11.33;10.67;;;;;15.92;59.47;101679.44;5095019;27;48017;-74
2022/06/14 03:14:37;;;;;;;;;9.00;8.00;;;;;15.87;59.53;101677.31;5079503;28;45290;-74
2022/06/14 03:17:34;;;;;;;;;11.00;9.00;;;;;15.83;59.89;101681.38;5079374;27;45168;-74
2022/06/14 03:20:07;;;;;;;;;6.67;6.67;;;;;15.75;59.96;101667.03;5079477;27;45525;-75
2022/06/14 03:22:52;;;;;;;;;9.33;7.00;;;;;15.73;60.65;101677.13;5079129;27;46439;-74
2022/06/14 03:25:34;;;;;;;;;8.00;8.00;;;;;15.68;60.22;101676.03;5079529;27;45260;-74
2022/06/14 03:28:21;;;;;;;;;10.00;8.33;;;;;15.66;60.42;101676.22;5078496;27;45284;-74
2022/06/14 03:30:53;;;;;;;;;7.67;6.67;;;;;15.63;61.19;101679.25;5077521;28;47157;-74
2022/06/14 03:33:34;;;;;;;;;7.00;7.00;;;;;15.52;60.62;101669.81;5078390;27;45656;-74
2022/06/14 03:35:59;;;;;;;;;8.00;8.00;;;;;15.50;61.10;101670.00;5094846;27;45387;-75
2022/06/14 03:38:32;;;;;;;;;9.33;8.67;;;;;15.50;60.83;101679.88;5079193;27;45668;-74
2022/06/14 03:40:58;;;;;;;;;11.33;11.33;;;;;15.48;61.00;101677.38;5079165;28;45252;-74
2022/06/14 03:43:24;;;;;;;;;9.33;9.00;;;;;15.45;61.35;101669.75;5078830;27;45202;-74
2022/06/14 03:46:02;;;;;;;;;9.00;7.67;;;;;15.40;61.49;101658.75;5079041;28;45342;-74
2022/06/14 03:48:29;;;;;;;;;8.00;8.00;;;;;15.34;61.74;101664.81;5079204;27;45544;-74
2022/06/14 03:51:01;;;;;;;;;9.33;9.33;;;;;15.30;61.71;101671.56;5079058;27;45339;-73
2022/06/14 03:53:37;;;;;;;;;10.00;9.00;;;;;15.23;61.70;101664.25;5078851;27;45534;-74
2022/06/14 03:56:18;;;;;;;;;9.00;8.33;;;;;15.23;61.84;101663.41;5078779;27;45457;-74
2022/06/14 03:59:06;;;;;;;;;9.00;9.00;;;;;15.27;61.93;101664.75;5079070;27;45235;-74
2022/06/14 04:01:41;;;;;;;;;8.67;8.67;;;;;15.29;61.81;101672.59;5078628;27;45354;-74
2022/06/14 04:04:28;;;;;;;;;8.33;8.33;;;;;15.27;62.18;101668.22;5081822;27;46421;-74
2022/06/14 04:07:03;;;;;;;;;9.00;9.00;;;;;15.22;61.91;101661.75;5083987;27;45429;-74
2022/06/14 04:09:44;;;;;;;;;10.33;10.33;;;;;15.29;62.15;101667.25;5078778;27;45487;-74
2022/06/14 04:12:34;;;;;;;;;15.67;14.67;;;;;15.27;62.11;101662.88;5078459;27;45600;-74
2022/06/14 04:15:14;;;;;;;;;7.00;7.00;;;;;15.26;61.60;101671.09;5078560;27;45468;-74
2022/06/14 04:18:00;;;;;;;;;10.00;9.67;;;;;15.23;61.97;101663.41;5077335;27;45327;-75
2022/06/14 04:20:33;;;;;;;;;9.67;9.67;;;;;15.22;61.75;101670.66;5077466;27;45366;-75
2022/06/14 04:23:20;;;;;;;;;7.33;7.33;;;;;15.22;62.23;101669.81;5078647;27;45310;-74
2022/06/14 04:26:04;;;;;;;;;9.33;7.33;;;;;15.25;62.59;101667.59;5078376;27;45343;-74
2022/06/14 04:29:01;;;;;;;;;9.67;9.33;;;;;15.26;62.33;101666.56;5078556;27;45235;-74
2022/06/14 04:31:30;;;;;;;;;9.33;9.33;;;;;15.25;62.51;101670.28;5074110;27;46777;-74
2022/06/14 04:34:06;;;;;;;;;9.33;8.33;;;;;15.25;63.00;101669.44;5078552;28;45461;-74
2022/06/14 04:36:39;;;;;;;;;7.00;7.00;;;;;15.25;62.49;101683.66;5076934;28;48201;-76
2022/06/14 04:39:11;;;;;;;;;7.00;6.00;;;;;15.15;62.56;101669.72;5080046;27;45768;-75
2022/06/14 04:41:44;;;;;;;;;8.33;8.00;;;;;15.19;62.50;101684.38;5081791;27;45356;-76
2022/06/14 04:44:19;;;;;;;;;6.67;6.67;;;;;15.23;63.05;101676.81;5081925;28;45305;-75
2022/06/14 04:46:47;;;;;;;;;6.67;6.00;;;;;15.25;62.75;101667.59;5081381;27;45448;-75
2022/06/14 04:49:20;;;;;;;;;8.33;8.33;;;;;15.22;62.87;101659.09;5081602;27;45337;-75
2022/06/14 04:51:51;;;;;;;;;7.00;7.00;;;;;15.22;63.65;101673.31;5081541;27;45399;-76
2022/06/14 04:54:26;;;;;;;;;7.00;7.00;;;;;15.23;63.70;101669.63;5081393;28;45449;-76
2022/06/14 04:57:03;;;;;;;;;7.33;7.33;;;;;15.23;63.61;101663.41;5079874;28;45401;-76
2022/06/14 04:59:39;;;;;;;;;14.33;12.00;;;;;15.25;63.24;101659.56;5070104;27;45406;-76
2022/06/14 05:02:09;;;;;;;;;13.00;12.67;;;;;15.27;63.23;101659.38;5081348;28;45539;-76
2022/06/14 05:04:40;;;;;;;;;30.33;27.33;;;;;15.34;63.43;101673.69;5082491;27;45583;-76
2022/06/14 05:07:21;;;;;;;;;17.00;15.33;;;;;15.41;63.20;101671.09;5081471;28;45476;-75
2022/06/14 05:10:04;;;;;;;;;11.33;9.00;;;;;15.42;63.06;101670.13;5080978;27;45436;-76
2022/06/14 05:12:45;;;;;;;;;8.00;8.00;;;;;15.50;63.26;101669.16;5081593;27;45430;-77
2022/06/14 05:15:13;;;;;;;;;78.00;65.75;;;;;15.50;63.43;101672.69;5080654;27;45335;-77
2022/06/14 05:17:47;;;;;;;;;69.75;53.00;;;;;15.51;62.90;101660.94;5081394;27;45550;-77
2022/06/14 05:20:35;;;;;;;;;141.50;122.75;;;;;15.60;63.22;101663.56;5080882;27;45286;-78
2022/06/14 05:23:16;;;;;;;;;67.50;53.25;;;;;15.66;63.32;101668.16;5081443;27;45420;-77
2022/06/14 05:25:44;;;;;;;;;23.67;19.00;;;;;15.73;63.35;101668.25;5081069;27;45599;-76
2022/06/14 05:28:14;;;;;;;;;8.67;8.67;;;;;15.76;62.99;101659.84;5079738;27;47089;-77
2022/06/14 05:30:54;;;;;;;;;10.00;8.67;;;;;15.78;62.03;101657.81;5096665;27;45328;-77
2022/06/14 05:33:28;;;;;;;;;16.00;14.33;;;;;15.81;62.30;101667.31;5081191;27;45346;-76
2022/06/14 05:36:04;;;;;;;;;10.00;10.00;;;;;15.86;62.72;101664.94;5080880;27;45347;-77
2022/06/14 05:38:51;;;;;;;;;7.67;7.33;;;;;15.89;61.90;101660.00;5079465;27;47418;-75
2022/06/14 05:41:39;;;;;;;;;5.00;4.00;;;;;15.82;62.63;101642.16;5080832;28;45370;-75
2022/06/14 05:44:13;;;;;;;;;6.00;5.67;;;;;15.78;62.44;101639.88;5080932;27;45334;-75
2022/06/14 05:47:05;;;;;;;;;9.00;5.33;;;;;15.90;62.39;101656.28;5080821;27;45284;-74
2022/06/14 05:49:37;;;;;;;;;6.67;6.67;;;;;15.89;62.81;101653.81;5080511;27;45254;-75
2022/06/14 05:52:07;;;;;;;;;6.00;6.00;;;;;15.91;62.21;101651.78;5079895;27;45286;-75
2022/06/14 05:54:38;;;;;;;;;7.67;7.67;;;;;15.92;62.70;101648.06;5074390;27;45472;-74
2022/06/14 05:57:24;;;;;;;;;9.67;9.67;;;;;16.06;62.52;101665.19;5075519;28;45313;-74
2022/06/14 05:59:59;;;;;;;;;78.00;63.00;;;;;16.11;62.09;101662.78;5078063;28;48140;-73
2022/06/14 06:02:44;;;;;;;;;10.00;10.00;;;;;16.18;61.49;101667.38;5079463;27;45485;-74
2022/06/14 06:05:32;;;;;;;;;12.33;11.67;;;;;16.25;61.91;101658.38;5086402;27;45341;-73
2022/06/14 06:08:13;;;;;;;;;9.00;9.00;;;;;16.21;61.86;101641.00;5080259;27;46311;-73
2022/06/14 06:10:44;;;;;;;;;8.00;8.00;;;;;16.39;61.70;101656.69;5080493;27;46377;-73
2022/06/14 06:13:27;;;;;;;;;11.67;10.33;;;;;16.49;61.16;101660.91;5080211;27;45476;-74
2022/06/14 06:15:57;;;;;;;;;7.00;7.00;;;;;16.51;61.08;101656.16;5080298;28;45530;-75
2022/06/14 06:18:31;;;;;;;;;6.00;5.00;;;;;16.51;60.99;101656.16;5080236;27;45413;-74
2022/06/14 06:21:04;;;;;;;;;6.33;6.33;;;;;16.57;60.87;101649.19;5080279;27;45445;-73
2022/06/14 06:23:37;;;;;;;;;7.67;5.67;;;;;16.69;61.34;101650.34;5095930;27;45649;-74
2022/06/14 06:26:04;;;;;;;;;7.00;6.33;;;;;16.68;60.48;101651.38;5080488;27;45292;-74
2022/06/14 06:28:37;;;;;;;;;10.33;10.33;;;;;16.70;60.81;101643.13;5080144;27;45311;-73
2022/06/14 06:31:25;;;;;;;;;5.00;5.00;;;;;16.77;60.80;101646.69;5075650;27;45425;-74
2022/06/14 06:33:54;;;;;;;;;7.00;7.00;;;;;16.78;60.58;101642.97;5095863;27;45437;-75
2022/06/14 06:36:28;;;;;;;;;58.50;46.75;;;;;16.91;61.21;101643.09;5072709;27;45385;-75
2022/06/14 06:38:57;;;;;;;;;35.00;28.00;;;;;17.03;60.39;101648.75;5077562;27;45737;-74
2022/06/14 06:44:36;;;;;;;;;20.33;16.33;;;;;17.21;59.83;101644.75;5079480;28;45434;-74
2022/06/14 06:47:22;;;;;;;;;49.00;38.75;;;;;17.32;59.68;101639.88;5069375;27;45454;-75
2022/06/14 06:50:04;;;;;;;;;26.33;24.67;;;;;17.41;60.04;101638.69;5078353;27;45675;-74
2022/06/14 06:52:41;;;;;;;;;11.33;10.33;;;;;17.50;59.42;101637.50;5078340;28;45525;-74
2022/06/14 06:55:12;;;;;;;;;6.33;6.00;;;;;17.59;59.64;101631.94;5075716;28;45278;-75
2022/06/14 06:57:40;;;;;;;;;9.00;9.00;;;;;17.68;58.98;101628.06;5076831;28;45644;-73
2022/06/14 07:00:07;;;;;;;;;11.00;9.00;;;;;17.73;59.70;101625.63;5095493;27;46451;-74
2022/06/14 07:02:43;;;;;;;;;23.67;22.00;;;;;17.83;59.18;101627.09;5078847;28;45401;-76
2022/06/14 07:05:14;;;;;;;;;9.00;9.00;;;;;17.99;58.83;101642.88;5097605;27;46070;-76
2022/06/14 07:08:03;;;;;;;;;7.67;7.67;;;;;18.09;58.37;101636.28;5079658;28;45378;-75
2022/06/14 07:10:41;;;;;;;;;11.67;11.67;;;;;18.17;58.32;101625.38;5078155;27;45609;-75
2022/06/14 07:13:22;;;;;;;;;9.67;7.67;;;;;18.32;57.73;101627.88;5078035;27;46146;-75
2022/06/14 07:16:02;;;;;;;;;4.00;4.00;;;;;18.37;58.29;101629.94;5076805;28;45525;-76
2022/06/14 07:19:10;;;;;;;;;10.33;8.00;;;;;18.50;57.36;101634.53;5077499;27;45397;-75
2022/06/14 07:21:42;;;;;;;;;35.33;31.00;;;;;18.61;56.92;101628.53;5054245;28;46178;-76
2022/06/14 07:24:21;;;;;;;;;32.67;26.33;;;;;18.78;57.26;101641.56;5070295;28;47432;-75
2022/06/14 07:26:56;;;;;;;;;9.00;7.67;;;;;18.83;56.47;101636.41;5078513;27;45350;-77
2022/06/14 07:29:33;;;;;;;;;61.75;48.50;;;;;18.88;56.13;101630.38;5081644;28;45288;-75
2022/06/14 07:32:03;;;;;;;;;59.75;46.00;;;;;18.98;56.59;101625.41;5081084;27;45346;-74
2022/06/14 07:34:30;;;;;;;;;65.75;52.75;;;;;19.10;56.37;101632.88;5078350;28;47255;-75
2022/06/14 07:37:02;;;;;;;;;43.33;36.33;;;;;19.21;56.22;101631.41;5080205;27;45187;-75
2022/06/14 07:39:30;;;;;;;;;11.00;11.00;;;;;19.30;56.20;101639.06;5076500;28;45455;-75
2022/06/14 07:42:00;;;;;;;;;20.00;18.67;;;;;19.42;55.43;101625.75;5074643;28;47160;-77
2022/06/14 07:44:34;;;;;;;;;6.67;6.67;;;;;19.53;55.58;101626.13;5071488;28;46206;-77
2022/06/14 07:47:02;;;;;;;;;35.00;28.33;;;;;19.63;55.43;101621.09;5078318;27;45351;-76
2022/06/14 07:49:41;;;;;;;;;70.00;59.50;;;;;19.73;55.32;101612.56;5080763;27;45321;-76
2022/06/14 07:52:42;;;;;;;;;24.33;20.67;;;;;19.84;54.84;101618.34;5079864;27;45299;-76
2022/06/14 07:55:24;;;;;;;;;24.67;21.00;;;;;19.90;54.87;101603.97;5078957;27;45374;-75
2022/06/14 07:58:06;;;;;;;;;15.00;14.33;;;;;20.06;54.27;101613.47;5078840;27;45363;-74
2022/06/14 08:03:52;;;;;;;;;24.00;21.67;;;;;20.26;53.86;101604.41;5078843;28;45370;-74
2022/06/14 08:06:33;;;;;;;;;12.67;12.00;;;;;20.37;53.66;101600.16;5071102;27;47101;-75
2022/06/14 08:09:09;;;;;;;;;43.33;35.67;;;;;20.46;53.65;101600.72;5077142;28;45435;-74
2022/06/14 08:11:55;;;;;;;;;55.67;41.33;;;;;20.55;53.77;101594.84;5079354;28;45359;-74
2022/06/14 08:14:34;;;;;;;;;29.00;26.67;;;;;20.65;52.83;101586.22;5080896;28;45635;-74
2022/06/14 08:17:00;;;;;;;;;47.33;38.67;;;;;20.61;52.86;101571.53;5082499;27;45432;-73
2022/06/14 08:19:37;;;;;;;;;6.67;6.33;;;;;20.72;52.17;101577.25;5098149;27;45373;-73
2022/06/14 08:22:12;;;;;;;;;6.33;6.33;;;;;20.87;51.60;101595.81;5082346;27;45235;-73
2022/06/14 08:24:52;;;;;;;;;55.50;44.75;;;;;20.95;51.23;101587.41;5082738;27;45253;-73
2022/06/14 08:27:32;;;;;;;;;17.00;14.00;;;;;21.00;51.26;101584.88;5082422;27;45452;-73
2022/06/14 08:30:05;;;;;;;;;56.50;44.75;;;;;21.10;51.39;101578.16;5083547;27;45311;-75
2022/06/14 08:32:51;;;;;;;;;15.67;12.67;;;;;21.19;51.49;101577.59;5085770;27;45476;-74
2022/06/14 08:35:26;;;;;;;;;14.00;11.67;;;;;21.34;50.96;101578.28;5081927;27;47289;-75
2022/06/14 08:38:13;;;;;;;;;9.00;8.67;;;;;21.41;50.25;101571.75;5083665;28;47118;-73
2022/06/14 08:40:54;;;;;;;;;11.67;11.67;;;;;21.51;50.75;101573.91;5078799;28;45256;-74
2022/06/14 08:43:24;;;;;;;;;7.33;7.33;;;;;21.61;50.01;101575.25;5079053;28;45507;-74
2022/06/14 08:45:58;;;;;;;;;51.00;41.25;;;;;21.69;50.41;101564.94;5094167;27;46029;-73
2022/06/14 08:48:35;;;;;;;;;51.75;42.25;;;;;21.77;50.37;101560.28;5078754;28;46551;-72
2022/06/14 08:51:12;;;;;;;;;36.00;30.67;;;;;21.86;49.34;101558.06;5081791;27;45302;-73
2022/06/14 08:54:02;;;;;;;;;19.33;19.00;;;;;21.91;48.19;101555.50;5081794;27;45354;-73
2022/06/14 08:57:07;;;;;;;;;8.00;8.00;;;;;22.01;48.43;101557.66;5081584;28;45325;-74
2022/06/14 08:59:51;;;;;;;;;10.67;9.67;;;;;22.06;48.48;101555.09;5080033;27;47303;-73
2022/06/14 09:02:39;;;;;;;;;45.00;35.67;;;;;22.15;48.47;101555.56;5080004;27;46231;-74
2022/06/14 09:05:48;;;;;;;;;13.33;12.67;;;;;22.28;48.06;101549.09;5092167;27;45281;-72
2022/06/14 09:08:37;;;;;;;;;13.33;12.67;;;;;22.40;46.88;101557.22;5081245;28;45454;-73
2022/06/14 09:11:18;;;;;;;;;12.33;12.33;;;;;22.48;46.74;101548.78;5081221;27;45452;-71
2022/06/14 09:14:08;;;;;;;;;8.00;7.33;;;;;22.57;46.32;101551.94;5081219;27;45950;-73
2022/06/14 09:16:49;;;;;;;;;23.33;23.00;;;;;22.72;45.78;101548.81;5077946;28;45571;-72
2022/06/14 09:19:23;;;;;;;;;9.33;9.33;;;;;22.79;45.20;101544.06;5080928;27;45468;-74
2022/06/14 09:22:10;;;;;;;;;7.33;7.33;;;;;22.91;45.46;101552.19;5078542;27;45890;-73
2022/06/14 09:24:58;;;;;;;;;7.67;7.00;;;;;23.00;44.76;101551.81;5076872;28;45303;-73
2022/06/14 09:27:42;;;;;;;;;11.33;11.33;;;;;23.07;43.77;101550.63;5092842;27;45628;-74
2022/06/14 09:30:17;;;;;;;;;36.33;31.00;;;;;23.17;43.78;101547.28;5080528;28;45350;-74
2022/06/14 09:33:09;;;;;;;;;10.00;9.00;;;;;23.24;43.80;101549.03;5080648;28;46165;-74
2022/06/14 09:36:05;;;;;;;;;9.67;8.00;;;;;23.31;44.60;101553.25;5080672;27;45495;-74
2022/06/14 09:38:52;;;;;;;;;39.33;33.67;;;;;23.39;43.96;101553.97;5078049;27;45433;-73
2022/06/14 09:41:40;;;;;;;;;11.00;9.00;;;;;23.45;43.78;101547.59;5080378;28;46345;-73
2022/06/14 09:44:21;;;;;;;;;42.33;35.33;;;;;23.50;43.79;101542.28;5080577;28;45570;-74
2022/06/14 09:47:04;;;;;;;;;24.33;21.33;;;;;23.55;43.20;101546.94;5074724;27;45222;-75
2022/06/14 09:49:39;;;;;;;;;8.00;8.00;;;;;23.63;41.96;101552.00;5078170;27;45287;-74
2022/06/14 09:52:13;;;;;;;;;53.75;42.50;;;;;23.68;42.80;101543.94;5080070;27;45583;-74
2022/06/14 09:55:27;;;;;;;;;43.00;34.33;;;;;23.68;42.75;101522.22;5073524;28;45317;-74
2022/06/14 09:58:21;;;;;;;;;36.33;31.67;;;;;23.73;42.67;101515.28;5062258;28;45375;-74
2022/06/14 10:01:14;;;;;;;;;24.67;22.00;;;;;23.95;42.46;101532.47;5080794;28;45303;-75
2022/06/14 10:03:45;;;;;;;;;9.00;7.33;;;;;24.06;42.55;101538.88;5080666;27;45252;-75
2022/06/14 10:06:41;;;;;;;;;8.33;7.00;;;;;24.08;41.94;101525.06;5086235;27;46107;-75
2022/06/14 10:09:25;;;;;;;;;8.00;7.67;;;;;24.18;41.64;101530.69;5073652;27;45389;-75
2022/06/14 10:12:06;;;;;;;;;9.67;9.33;;;;;24.17;41.75;101517.38;5074648;27;45192;-76
2022/06/14 10:14:40;;;;;;;;;12.00;10.33;;;;;24.26;41.74;101536.78;5075403;28;45377;-76
2022/06/14 10:17:17;;;;;;;;;9.33;8.67;;;;;24.34;41.28;101525.50;5074204;28;46317;-74
2022/06/14 10:20:01;;;;;;;;;8.33;7.00;;;;;24.44;40.87;101527.53;5075324;28;45376;-76
2022/06/14 10:22:43;;;;;;;;;9.33;8.67;;;;;24.53;40.80;101522.50;5080054;28;45251;-75
2022/06/14 10:25:34;;;;;;;;;12.67;12.00;;;;;24.53;40.21;101515.19;5079881;28;45626;-75
2022/06/14 10:28:11;;;;;;;;;6.00;6.00;;;;;24.76;41.16;101528.81;5034781;28;46464;-75
2022/06/14 10:31:20;;;;;;;;;8.33;8.33;;;;;24.95;40.40;101537.50;5078923;28;45489;-75
2022/06/14 10:34:18;;;;;;;;;21.33;19.33;;;;;25.17;40.00;101533.97;5108955;27;45385;-75
2022/06/14 10:36:52;;;;;;;;;17.33;16.00;;;;;25.34;39.92;101525.72;5034167;27;45479;-75
2022/06/14 10:39:39;;;;;;;;;11.33;11.33;;;;;25.48;39.69;101526.13;5078487;27;46757;-76
2022/06/14 10:42:07;;;;;;;;;7.33;7.33;;;;;25.67;40.00;101517.63;5095501;27;45312;-76
2022/06/14 10:45:01;;;;;;;;;26.00;23.33;;;;;25.80;39.21;101525.38;5079722;27;45422;-75
2022/06/14 10:47:53;;;;;;;;;68.25;57.75;;;;;25.95;39.19;101521.16;5079904;28;45302;-75
2022/06/14 10:50:37;;;;;;;;;34.33;30.00;;;;;26.15;38.64;101515.03;5079866;27;45781;-75
2022/06/14 10:53:13;;;;;;;;;9.00;9.00;;;;;26.21;37.51;101503.09;5075515;27;45340;-75
2022/06/14 10:56:05;;;;;;;;;10.00;10.00;;;;;26.31;37.92;101513.25;5080029;27;45337;-75
2022/06/14 10:58:41;;;;;;;;;84.75;78.50;;;;;26.39;37.55;101516.59;5074933;27;45426;-75
2022/06/14 11:01:28;;;;;;;;;8.33;8.33;;;;;26.38;37.27;101485.78;5076574;28;46180;-76
2022/06/14 11:03:59;;;;;;;;;43.00;35.33;;;;;26.57;37.95;101496.22;5080630;27;45417;-75
2022/06/14 11:06:46;;;;;;;;;6.33;6.33;;;;;26.67;36.29;101493.53;5088241;27;45337;-74
2022/06/14 11:09:32;;;;;;;;;7.00;6.33;;;;;26.82;36.65;101494.72;5079376;28;45592;-74
2022/06/14 11:12:10;;;;;;;;;29.33;25.33;;;;;27.03;35.82;101490.19;5079430;27;45975;-78
2022/06/14 11:14:55;;;;;;;;;47.00;37.67;;;;;27.19;36.58;101482.03;5079476;27;45352;-72
2022/06/14 11:17:47;;;;;;;;;83.25;74.75;;;;;27.37;35.14;101483.44;5079457;28;45303;-73
2022/06/14 11:20:21;;;;;;;;;11.67;11.67;;;;;27.54;35.79;101474.16;5074883;28;46630;-74
2022/06/14 11:23:00;;;;;;;;;8.33;6.67;;;;;27.64;35.52;101463.25;5065854;28;45386;-74
2022/06/14 11:25:36;;;;;;;;;16.33;14.33;;;;;27.79;35.02;101465.19;5079334;27;45321;-73
2022/06/14 11:28:24;;;;;;;;;6.00;6.00;;;;;27.94;34.88;101464.34;5079698;27;45477;-75
2022/06/14 11:31:05;;;;;;;;;7.33;7.33;;;;;28.09;34.91;101458.06;5094459;27;50187;-74
2022/06/14 11:33:45;;;;;;;;;6.00;6.00;;;;;28.23;34.85;101454.75;5079264;28;45324;-73
2022/06/14 11:36:55;;;;;;;;;7.67;7.67;;;;;28.33;35.07;101457.47;5079090;27;45454;-75
2022/06/14 11:39:45;;;;;;;;;9.33;9.00;;;;;28.48;33.67;101451.13;5079306;28;45208;-73
2022/06/14 11:42:24;;;;;;;;;8.00;8.00;;;;;28.48;33.72;101447.56;5079157;28;45420;-74
2022/06/14 11:45:00;;;;;;;;;7.67;7.67;;;;;28.43;33.54;101442.94;5094337;27;48849;-74
2022/06/14 11:47:42;;;;;;;;;7.00;7.00;;;;;28.43;33.21;101445.69;5079476;27;45240;-73
2022/06/14 11:50:24;;;;;;;;;25.67;19.67;;;;;28.45;33.27;101429.81;5082181;27;45370;-73
2022/06/14 11:53:02;;;;;;;;;102.25;95.00;;;;;28.46;32.00;101417.78;5082636;27;45288;-73
2022/06/14 11:55:40;;;;;;;;;13.67;13.67;;;;;28.60;33.01;101439.88;5081207;27;47200;-74
2022/06/14 11:58:15;;;;;;;;;7.33;6.33;;;;;28.77;33.69;101441.44;5098334;27;45409;-75
2022/06/14 12:00:40;;;;;;;;;7.33;7.33;;;;;28.94;32.85;101432.88;5082602;27;45244;-73
2022/06/14 12:03:24;;;;;;;;;5.00;5.00;;;;;29.10;32.50;101421.84;5082656;27;45450;-75
2022/06/14 12:06:11;;;;;;;;;31.00;29.00;;;;;29.27;32.65;101418.69;5087262;27;46228;-76
2022/06/14 12:09:01;;;;;;;;;8.33;7.33;;;;;29.34;32.21;101424.69;5078837;28;45375;-76
2022/06/14 12:11:34;;;;;;;;;26.00;22.33;;;;;29.33;32.90;101403.88;5081848;27;45389;-75
2022/06/14 12:14:21;;;;;;;;;11.00;10.67;;;;;29.33;30.03;101403.09;5081757;27;45331;-76
2022/06/14 12:17:16;;;;;;;;;6.00;6.00;;;;;29.29;31.35;101399.25;5080683;28;48310;-75
2022/06/14 12:19:47;;;;;;;;;6.00;4.67;;;;;29.38;31.46;101394.00;5098057;27;45532;-78